CMA CGM Herodote — MFEP — position and weather

sailwx.info

Track history (hours):
 
Tides and Currents Weather Stations Pressure Air Temp Water Temp Dewpoint Dewpoint Depression Visibility Wind Speed Wind Dir Waves Ship Positions

CMA CGM Herodote

Last reported at 2016-Aug-29 14:34 UTC. Time now 2016-Aug-29 14:45 UTC.
Position N 36°13' W 003°09'.

Length 170 m; draft 10.1 m.

Type: Ship (hazmat cat A). MMSI: 235051085.

Date/timePositionNaut miles runAvg speedWind from/ knotsBaromVisibWave heightAir tempDewpointWater temp
2016-Aug-29 14:34N 36°13' W 003°09'1919.2
2016-Aug-29 13:33N 36°11' W 003°33'8220.4
2016-Aug-29 09:33N 35°60' W 005°13'1414.0
2016-Aug-29 08:33N 35°56' W 005°30'11816.8
2016-Aug-29 01:33N 36°15' W 007°53'1918.8
2016-Aug-29 00:33N 36°21' W 008°15'1918.7
2016-Aug-28 23:33N 36°25' W 008°38'1918.4
2016-Aug-28 22:33N 36°30' W 009°00'2318.1
2016-Aug-28 21:17N 36°41' W 009°25'1318.3
2016-Aug-28 20:33N 36°52' W 009°34'1919.3
2016-Aug-28 19:33N 37°11' W 009°40'1919.3
2016-Aug-28 18:33N 37°29' W 009°46'1919.2
2016-Aug-28 17:33N 37°48' W 009°52'1919.2
2016-Aug-28 16:33N 38°07' W 009°56'1919.3
2016-Aug-28 15:33N 38°26' W 010°01'1918.9
2016-Aug-28 14:33N 38°44' W 010°06'1918.9
2016-Aug-28 13:33N 39°03' W 010°07'1919.2
2016-Aug-28 12:34N 39°22' W 010°08'42418.3
2016-Aug-27 13:24N 46°14' W 007°54'16418.5
2016-Aug-27 04:33N 48°40' W 006°00'1919.3
2016-Aug-27 03:33N 48°55' W 005°43'1918.9
2016-Aug-27 02:34N 49°04' W 005°18'1514.5
2016-Aug-27 01:33N 49°12' W 004°59'1616.1
2016-Aug-27 00:34N 49°19' W 004°37'1717.3
2016-Aug-26 23:34N 49°28' W 004°15'1918.7
2016-Aug-26 22:34N 49°38' W 003°50'1919.1
2016-Aug-26 21:33N 49°47' W 003°24'2020.0
2016-Aug-26 20:34N 49°57' W 002°57'2120.6
2016-Aug-26 19:33N 50°03' W 002°26'1919.3
2016-Aug-26 18:33N 50°01' W 001°56'2019.6
2016-Aug-26 17:34N 49°53' W 001°28'1918.6
2016-Aug-26 16:33N 49°46' W 001°01'1817.8
2016-Aug-26 15:33N 49°40' W 000°36'1616.1
2016-Aug-26 14:34N 49°34' W 000°13'1212.0
2016-Aug-26 13:33N 49°29' E 000°04'4 3.9
2016-Aug-26 12:31N 49°27' E 000°10'0 0.0
2016-Aug-26 11:31N 49°27' E 000°10'0 0.0
2016-Aug-26 10:31N 49°27' E 000°10'0 0.0
2016-Aug-26 09:31N 49°27' E 000°10'0 0.0
2016-Aug-26 08:31N 49°27' E 000°10'0 0.0
2016-Aug-26 07:31N 49°27' E 000°10'0 0.0
2016-Aug-26 06:31N 49°27' E 000°10'0 0.0
2016-Aug-26 04:31N 49°27' E 000°10'0 0.0
2016-Aug-26 03:31N 49°27' E 000°10'0 0.0
2016-Aug-26 02:31N 49°27' E 000°10'0 0.0
2016-Aug-26 01:31N 49°27' E 000°10'0 0.0
2016-Aug-26 00:31N 49°27' E 000°10'0 0.0
2016-Aug-25 23:31N 49°27' E 000°10'0 0.0
2016-Aug-25 22:31N 49°27' E 000°10'0 0.0
2016-Aug-25 21:31N 49°27' E 000°10'5 5.3
2016-Aug-25 20:34N 49°30' E 000°03'1110.5
2016-Aug-25 19:34N 49°35' W 000°11'1414.0
2016-Aug-25 18:33N 49°49' W 000°12'1817.7
2016-Aug-25 17:33N 50°06' W 000°08'1818.2
2016-Aug-25 16:33N 50°24' W 000°03'1716.8
2016-Aug-25 15:33N 50°32' E 000°20'1717.2
2016-Aug-25 14:33N 50°40' E 000°44'2016.8
2016-Aug-25 13:21N 50°52' E 001°11'1215.4
2016-Aug-25 12:33N 50°60' E 001°25'1616.6
2016-Aug-25 11:33N 51°12' E 001°43'1717.2
2016-Aug-25 10:33N 51°24' E 002°02'1616.2
2016-Aug-25 09:33N 51°22' E 002°28'1414.3
2016-Aug-25 08:34N 51°22' E 002°50'1312.6
2016-Aug-25 07:34N 51°24' E 003°10'1413.6
2016-Aug-25 06:33N 51°26' E 003°32'16 8.0
2016-Aug-25 04:33N 51°25' E 003°58'8 7.6
2016-Aug-25 03:33N 51°23' E 004°09'7 6.5
2016-Aug-25 02:32N 51°18' E 004°16'0 0.2
2016-Aug-25 01:32N 51°18' E 004°16'0 0.0
2016-Aug-25 00:32N 51°18' E 004°16'0 0.0
2016-Aug-24 23:32N 51°18' E 004°16'0 0.0
2016-Aug-24 22:32N 51°18' E 004°16'0 0.0
2016-Aug-24 21:32N 51°18' E 004°16'0 0.0
2016-Aug-24 20:32N 51°18' E 004°16'0 0.0
2016-Aug-24 19:32N 51°18' E 004°16'0 0.0
2016-Aug-24 18:32N 51°18' E 004°16'0 0.0
2016-Aug-24 17:32N 51°18' E 004°16'0 0.0
2016-Aug-24 16:33N 51°18' E 004°16'0 0.2
2016-Aug-24 15:33N 51°18' E 004°16'6 6.0
2016-Aug-24 14:34N 51°23' E 004°13'9 8.6
2016-Aug-24 13:33N 51°26' E 003°59'1010.2
2016-Aug-24 12:34N 51°22' E 003°44'9 8.7
2016-Aug-24 11:34N 51°25' E 003°31'1110.8
2016-Aug-24 10:34N 51°24' E 003°14'9 8.9
2016-Aug-24 09:33N 51°27' E 003°00'1515.0
2016-Aug-24 08:33N 51°40' E 003°11'9 8.6
2016-Aug-24 07:33N 51°48' E 003°19'0 0.1
2016-Aug-24 06:26N 51°48' E 003°19'0 0.0
2016-Aug-24 04:23N 51°48' E 003°19'0 0.2
2016-Aug-24 03:29N 51°48' E 003°19'0 0.2
2016-Aug-24 02:32N 51°48' E 003°19'0 0.0
2016-Aug-24 01:20N 51°48' E 003°19'0 0.0
2016-Aug-24 00:32N 51°48' E 003°19'0 0.0
2016-Aug-23 23:29N 51°48' E 003°19'0 0.1
2016-Aug-23 22:17N 51°48' E 003°19'0 0.1
2016-Aug-23 20:32N 51°48' E 003°19'0 0.1
2016-Aug-23 19:32N 51°48' E 003°19'0 0.0
2016-Aug-23 16:32N 51°48' E 003°19'0 0.2
2016-Aug-23 15:14N 51°47' E 003°19'0 0.0
2016-Aug-23 12:24N 51°48' E 003°19'0 0.2
2016-Aug-23 11:33N 51°47' E 003°19'8 7.6
2016-Aug-23 10:34N 51°55' E 003°19'1110.8
2016-Aug-23 09:33N 52°03' E 003°32'1312.8
2016-Aug-23 08:33N 52°03' E 003°52'9 9.1
2016-Aug-23 07:34N 51°58' E 004°05'2 2.2
2016-Aug-23 06:31N 51°59' E 004°02'0 0.0
2016-Aug-23 05:28N 51°59' E 004°02'0 0.0
2016-Aug-23 04:32N 51°59' E 004°02'0 0.0
2016-Aug-23 03:32N 51°59' E 004°02'0 0.0
2016-Aug-23 02:20N 51°59' E 004°02'0 0.0
2016-Aug-23 01:33N 51°59' E 004°02'0 0.1
2016-Aug-23 00:33N 51°59' E 004°02'3 2.8
2016-Aug-22 23:33N 52°00' E 003°58'9 9.3
2016-Aug-22 22:34N 52°06' E 003°46'1717.2
2016-Aug-22 21:33N 52°23' E 003°49'1817.7
2016-Aug-22 20:33N 52°40' E 003°55'1515.1
2016-Aug-22 19:34N 52°55' E 003°60'1413.2
2016-Aug-22 18:30N 53°06' E 004°14'1213.1
2016-Aug-22 17:33N 53°16' E 004°26'1413.4
2016-Aug-22 16:31N 53°28' E 004°36'1413.5
2016-Aug-22 15:30N 53°33' E 004°58'1414.2
2016-Aug-22 14:33N 53°38' E 005°19'1414.0
2016-Aug-22 13:34N 53°42' E 005°41'1414.0
2016-Aug-22 12:33N 53°46' E 006°04'1414.2
2016-Aug-22 11:33N 53°50' E 006°27'1413.9
2016-Aug-22 10:33N 53°54' E 006°50'1413.7
2016-Aug-22 09:33N 53°57' E 007°12'1414.0
2016-Aug-22 08:33N 54°01' E 007°35'1413.9
2016-Aug-22 07:33N 54°01' E 007°59'1313.3
2016-Aug-22 06:33N 53°60' E 008°21'1414.1
2016-Aug-22 05:33N 53°53' E 008°43'1212.2
2016-Aug-22 04:33N 53°52' E 009°03'10 9.9
2016-Aug-22 03:33N 53°51' E 009°20'1010.3
2016-Aug-22 02:33N 53°42' E 009°30'10 9.8
2016-Aug-22 01:33N 53°34' E 009°39'9 9.1
2016-Aug-22 00:33N 53°32' E 009°54'1 0.9
2016-Aug-21 23:32N 53°32' E 009°55'0 0.0
2016-Aug-21 22:32N 53°32' E 009°55'0 0.0
2016-Aug-21 21:32N 53°32' E 009°55'0 0.0
2016-Aug-21 20:32N 53°32' E 009°55'0 0.0
2016-Aug-21 19:32N 53°32' E 009°55'0 0.0
2016-Aug-21 18:32N 53°32' E 009°55'0 0.0
2016-Aug-21 17:32N 53°32' E 009°55'0 0.0
2016-Aug-21 16:32N 53°32' E 009°55'0 0.0
2016-Aug-21 15:32N 53°32' E 009°55'2 2.4
2016-Aug-21 14:33N 53°33' E 009°52'1111.4
2016-Aug-21 13:34N 53°37' E 009°34'1414.1
2016-Aug-21 12:34N 53°49' E 009°22'1211.8
2016-Aug-21 11:33N 53°52' E 009°03'1211.9
2016-Aug-21 10:33N 53°53' E 008°43'1413.8
2016-Aug-21 09:34N 53°59' E 008°22'1212.4
2016-Aug-21 08:33N 54°01' E 008°01'1312.9
2016-Aug-21 07:33N 54°07' E 007°42'1616.3
2016-Aug-21 06:33N 54°17' E 007°20'1717.4
2016-Aug-21 05:33N 54°30' E 006°60'1616.4
2016-Aug-21 04:33N 54°43' E 006°43'1717.2
2016-Aug-21 03:33N 55°00' E 006°41'1717.1
2016-Aug-21 02:33N 55°17' E 006°40'1717.3
2016-Aug-21 01:34N 55°33' E 006°51'17416.8
2016-Aug-20 15:13N 57°50' E 010°08'1219.0
2016-Aug-20 14:33N 57°50' E 010°32'1918.7
2016-Aug-20 13:33N 57°41' E 011°02'1919.2
2016-Aug-20 12:33N 57°28' E 011°28'1919.4
2016-Aug-20 11:33N 57°09' E 011°39'1919.2
2016-Aug-20 10:33N 56°51' E 011°51'1717.3
2016-Aug-20 09:33N 56°34' E 011°45'1918.9
2016-Aug-20 08:34N 56°19' E 011°26'2018.6
2016-Aug-20 07:28N 56°02' E 011°06'1313.4
2016-Aug-20 06:31N 55°52' E 010°52'1413.0
2016-Aug-20 05:29N 55°38' E 010°47'1314.5
2016-Aug-20 04:33N 55°26' E 010°58'1514.8
2016-Aug-20 03:34N 55°12' E 011°06'1514.7
2016-Aug-20 02:33N 54°58' E 010°59'1414.0
2016-Aug-20 01:33N 54°45' E 010°53'1414.5
2016-Aug-20 00:33N 54°36' E 011°12'1716.6
2016-Aug-19 23:33N 54°29' E 011°38'1616.4
2016-Aug-19 22:34N 54°26' E 012°06'1414.5
2016-Aug-19 21:34N 54°39' E 012°19'1818.4
2016-Aug-19 20:34N 54°48' E 012°46'1918.7
2016-Aug-19 19:33N 54°55' E 013°17'1918.8
2016-Aug-19 18:33N 55°01' E 013°47'1818.2
2016-Aug-19 17:34N 55°11' E 014°14'1918.7
2016-Aug-19 16:33N 55°26' E 014°35'1918.7
2016-Aug-19 15:34N 55°35' E 015°03'  
Track history (hours):
 
Tides and Currents Weather Stations Pressure Air Temp Water Temp Dewpoint Dewpoint Depression Visibility Wind Speed Wind Dir Waves Ship Positions

CMA CGM Herodote

Last reported at 2016-Aug-29 14:34 UTC. Time now 2016-Aug-29 14:45 UTC.
Position N 36°13' W 003°09'.

Length 170 m; draft 10.1 m.

Type: Ship (hazmat cat A). MMSI: 235051085.

Date/timePositionNaut miles runAvg speedWind from/ knotsBaromVisibWave heightAir tempDewpointWater temp
2016-Aug-29 14:34N 36°13' W 003°09'1919.2
2016-Aug-29 13:33N 36°11' W 003°33'8220.4
2016-Aug-29 09:33N 35°60' W 005°13'1414.0
2016-Aug-29 08:33N 35°56' W 005°30'11816.8
2016-Aug-29 01:33N 36°15' W 007°53'1918.8
2016-Aug-29 00:33N 36°21' W 008°15'1918.7
2016-Aug-28 23:33N 36°25' W 008°38'1918.4
2016-Aug-28 22:33N 36°30' W 009°00'2318.1
2016-Aug-28 21:17N 36°41' W 009°25'1318.3
2016-Aug-28 20:33N 36°52' W 009°34'1919.3
2016-Aug-28 19:33N 37°11' W 009°40'1919.3
2016-Aug-28 18:33N 37°29' W 009°46'1919.2
2016-Aug-28 17:33N 37°48' W 009°52'1919.2
2016-Aug-28 16:33N 38°07' W 009°56'1919.3
2016-Aug-28 15:33N 38°26' W 010°01'1918.9
2016-Aug-28 14:33N 38°44' W 010°06'1918.9
2016-Aug-28 13:33N 39°03' W 010°07'1919.2
2016-Aug-28 12:34N 39°22' W 010°08'42418.3
2016-Aug-27 13:24N 46°14' W 007°54'16418.5
2016-Aug-27 04:33N 48°40' W 006°00'1919.3
2016-Aug-27 03:33N 48°55' W 005°43'1918.9
2016-Aug-27 02:34N 49°04' W 005°18'1514.5
2016-Aug-27 01:33N 49°12' W 004°59'1616.1
2016-Aug-27 00:34N 49°19' W 004°37'1717.3
2016-Aug-26 23:34N 49°28' W 004°15'1918.7
2016-Aug-26 22:34N 49°38' W 003°50'1919.1
2016-Aug-26 21:33N 49°47' W 003°24'2020.0
2016-Aug-26 20:34N 49°57' W 002°57'2120.6
2016-Aug-26 19:33N 50°03' W 002°26'1919.3
2016-Aug-26 18:33N 50°01' W 001°56'2019.6
2016-Aug-26 17:34N 49°53' W 001°28'1918.6
2016-Aug-26 16:33N 49°46' W 001°01'1817.8
2016-Aug-26 15:33N 49°40' W 000°36'1616.1
2016-Aug-26 14:34N 49°34' W 000°13'1212.0
2016-Aug-26 13:33N 49°29' E 000°04'4 3.9
2016-Aug-26 12:31N 49°27' E 000°10'0 0.0
2016-Aug-26 11:31N 49°27' E 000°10'0 0.0
2016-Aug-26 10:31N 49°27' E 000°10'0 0.0
2016-Aug-26 09:31N 49°27' E 000°10'0 0.0
2016-Aug-26 08:31N 49°27' E 000°10'0 0.0
2016-Aug-26 07:31N 49°27' E 000°10'0 0.0
2016-Aug-26 06:31N 49°27' E 000°10'0 0.0
2016-Aug-26 04:31N 49°27' E 000°10'0 0.0
2016-Aug-26 03:31N 49°27' E 000°10'0 0.0
2016-Aug-26 02:31N 49°27' E 000°10'0 0.0
2016-Aug-26 01:31N 49°27' E 000°10'0 0.0
2016-Aug-26 00:31N 49°27' E 000°10'0 0.0
2016-Aug-25 23:31N 49°27' E 000°10'0 0.0
2016-Aug-25 22:31N 49°27' E 000°10'0 0.0
2016-Aug-25 21:31N 49°27' E 000°10'5 5.3
2016-Aug-25 20:34N 49°30' E 000°03'1110.5
2016-Aug-25 19:34N 49°35' W 000°11'1414.0
2016-Aug-25 18:33N 49°49' W 000°12'1817.7
2016-Aug-25 17:33N 50°06' W 000°08'1818.2
2016-Aug-25 16:33N 50°24' W 000°03'1716.8
2016-Aug-25 15:33N 50°32' E 000°20'1717.2
2016-Aug-25 14:33N 50°40' E 000°44'2016.8
2016-Aug-25 13:21N 50°52' E 001°11'1215.4
2016-Aug-25 12:33N 50°60' E 001°25'1616.6
2016-Aug-25 11:33N 51°12' E 001°43'1717.2
2016-Aug-25 10:33N 51°24' E 002°02'1616.2
2016-Aug-25 09:33N 51°22' E 002°28'1414.3
2016-Aug-25 08:34N 51°22' E 002°50'1312.6
2016-Aug-25 07:34N 51°24' E 003°10'1413.6
2016-Aug-25 06:33N 51°26' E 003°32'16 8.0
2016-Aug-25 04:33N 51°25' E 003°58'8 7.6
2016-Aug-25 03:33N 51°23' E 004°09'7 6.5
2016-Aug-25 02:32N 51°18' E 004°16'0 0.2
2016-Aug-25 01:32N 51°18' E 004°16'0 0.0
2016-Aug-25 00:32N 51°18' E 004°16'0 0.0
2016-Aug-24 23:32N 51°18' E 004°16'0 0.0
2016-Aug-24 22:32N 51°18' E 004°16'0 0.0
2016-Aug-24 21:32N 51°18' E 004°16'0 0.0
2016-Aug-24 20:32N 51°18' E 004°16'0 0.0
2016-Aug-24 19:32N 51°18' E 004°16'0 0.0
2016-Aug-24 18:32N 51°18' E 004°16'0 0.0
2016-Aug-24 17:32N 51°18' E 004°16'0 0.0
2016-Aug-24 16:33N 51°18' E 004°16'0 0.2
2016-Aug-24 15:33N 51°18' E 004°16'6 6.0
2016-Aug-24 14:34N 51°23' E 004°13'9 8.6
2016-Aug-24 13:33N 51°26' E 003°59'1010.2
2016-Aug-24 12:34N 51°22' E 003°44'9 8.7
2016-Aug-24 11:34N 51°25' E 003°31'1110.8
2016-Aug-24 10:34N 51°24' E 003°14'9 8.9
2016-Aug-24 09:33N 51°27' E 003°00'1515.0
2016-Aug-24 08:33N 51°40' E 003°11'9 8.6
2016-Aug-24 07:33N 51°48' E 003°19'0 0.1
2016-Aug-24 06:26N 51°48' E 003°19'0 0.0
2016-Aug-24 04:23N 51°48' E 003°19'0 0.2
2016-Aug-24 03:29N 51°48' E 003°19'0 0.2
2016-Aug-24 02:32N 51°48' E 003°19'0 0.0
2016-Aug-24 01:20N 51°48' E 003°19'0 0.0
2016-Aug-24 00:32N 51°48' E 003°19'0 0.0
2016-Aug-23 23:29N 51°48' E 003°19'0 0.1
2016-Aug-23 22:17N 51°48' E 003°19'0 0.1
2016-Aug-23 20:32N 51°48' E 003°19'0 0.1
2016-Aug-23 19:32N 51°48' E 003°19'0 0.0
2016-Aug-23 16:32N 51°48' E 003°19'0 0.2
2016-Aug-23 15:14N 51°47' E 003°19'0 0.0
2016-Aug-23 12:24N 51°48' E 003°19'0 0.2
2016-Aug-23 11:33N 51°47' E 003°19'8 7.6
2016-Aug-23 10:34N 51°55' E 003°19'1110.8
2016-Aug-23 09:33N 52°03' E 003°32'1312.8
2016-Aug-23 08:33N 52°03' E 003°52'9 9.1
2016-Aug-23 07:34N 51°58' E 004°05'2 2.2
2016-Aug-23 06:31N 51°59' E 004°02'0 0.0
2016-Aug-23 05:28N 51°59' E 004°02'0 0.0
2016-Aug-23 04:32N 51°59' E 004°02'0 0.0
2016-Aug-23 03:32N 51°59' E 004°02'0 0.0
2016-Aug-23 02:20N 51°59' E 004°02'0 0.0
2016-Aug-23 01:33N 51°59' E 004°02'0 0.1
2016-Aug-23 00:33N 51°59' E 004°02'3 2.8
2016-Aug-22 23:33N 52°00' E 003°58'9 9.3
2016-Aug-22 22:34N 52°06' E 003°46'1717.2
2016-Aug-22 21:33N 52°23' E 003°49'1817.7
2016-Aug-22 20:33N 52°40' E 003°55'1515.1
2016-Aug-22 19:34N 52°55' E 003°60'1413.2
2016-Aug-22 18:30N 53°06' E 004°14'1213.1
2016-Aug-22 17:33N 53°16' E 004°26'1413.4
2016-Aug-22 16:31N 53°28' E 004°36'1413.5
2016-Aug-22 15:30N 53°33' E 004°58'1414.2
2016-Aug-22 14:33N 53°38' E 005°19'1414.0
2016-Aug-22 13:34N 53°42' E 005°41'1414.0
2016-Aug-22 12:33N 53°46' E 006°04'1414.2
2016-Aug-22 11:33N 53°50' E 006°27'1413.9
2016-Aug-22 10:33N 53°54' E 006°50'1413.7
2016-Aug-22 09:33N 53°57' E 007°12'1414.0
2016-Aug-22 08:33N 54°01' E 007°35'1413.9
2016-Aug-22 07:33N 54°01' E 007°59'1313.3
2016-Aug-22 06:33N 53°60' E 008°21'1414.1
2016-Aug-22 05:33N 53°53' E 008°43'1212.2
2016-Aug-22 04:33N 53°52' E 009°03'10 9.9
2016-Aug-22 03:33N 53°51' E 009°20'1010.3
2016-Aug-22 02:33N 53°42' E 009°30'10 9.8
2016-Aug-22 01:33N 53°34' E 009°39'9 9.1
2016-Aug-22 00:33N 53°32' E 009°54'1 0.9
2016-Aug-21 23:32N 53°32' E 009°55'0 0.0
2016-Aug-21 22:32N 53°32' E 009°55'0 0.0
2016-Aug-21 21:32N 53°32' E 009°55'0 0.0
2016-Aug-21 20:32N 53°32' E 009°55'0 0.0
2016-Aug-21 19:32N 53°32' E 009°55'0 0.0
2016-Aug-21 18:32N 53°32' E 009°55'0 0.0
2016-Aug-21 17:32N 53°32' E 009°55'0 0.0
2016-Aug-21 16:32N 53°32' E 009°55'0 0.0
2016-Aug-21 15:32N 53°32' E 009°55'2 2.4
2016-Aug-21 14:33N 53°33' E 009°52'1111.4
2016-Aug-21 13:34N 53°37' E 009°34'1414.1
2016-Aug-21 12:34N 53°49' E 009°22'1211.8
2016-Aug-21 11:33N 53°52' E 009°03'1211.9
2016-Aug-21 10:33N 53°53' E 008°43'1413.8
2016-Aug-21 09:34N 53°59' E 008°22'1212.4
2016-Aug-21 08:33N 54°01' E 008°01'1312.9
2016-Aug-21 07:33N 54°07' E 007°42'1616.3
2016-Aug-21 06:33N 54°17' E 007°20'1717.4
2016-Aug-21 05:33N 54°30' E 006°60'1616.4
2016-Aug-21 04:33N 54°43' E 006°43'1717.2
2016-Aug-21 03:33N 55°00' E 006°41'1717.1
2016-Aug-21 02:33N 55°17' E 006°40'1717.3
2016-Aug-21 01:34N 55°33' E 006°51'17416.8
2016-Aug-20 15:13N 57°50' E 010°08'1219.0
2016-Aug-20 14:33N 57°50' E 010°32'1918.7
2016-Aug-20 13:33N 57°41' E 011°02'1919.2
2016-Aug-20 12:33N 57°28' E 011°28'1919.4
2016-Aug-20 11:33N 57°09' E 011°39'1919.2
2016-Aug-20 10:33N 56°51' E 011°51'1717.3
2016-Aug-20 09:33N 56°34' E 011°45'1918.9
2016-Aug-20 08:34N 56°19' E 011°26'2018.6
2016-Aug-20 07:28N 56°02' E 011°06'1313.4
2016-Aug-20 06:31N 55°52' E 010°52'1413.0
2016-Aug-20 05:29N 55°38' E 010°47'1314.5
2016-Aug-20 04:33N 55°26' E 010°58'1514.8
2016-Aug-20 03:34N 55°12' E 011°06'1514.7
2016-Aug-20 02:33N 54°58' E 010°59'1414.0
2016-Aug-20 01:33N 54°45' E 010°53'1414.5
2016-Aug-20 00:33N 54°36' E 011°12'1716.6
2016-Aug-19 23:33N 54°29' E 011°38'1616.4
2016-Aug-19 22:34N 54°26' E 012°06'1414.5
2016-Aug-19 21:34N 54°39' E 012°19'1818.4
2016-Aug-19 20:34N 54°48' E 012°46'1918.7
2016-Aug-19 19:33N 54°55' E 013°17'1918.8
2016-Aug-19 18:33N 55°01' E 013°47'1818.2
2016-Aug-19 17:34N 55°11' E 014°14'1918.7
2016-Aug-19 16:33N 55°26' E 014°35'1918.7
2016-Aug-19 15:34N 55°35' E 015°03'  

Dump ship's entire track history